createdAt,value
2019-04-21T00:03:23.288Z,24.20
2019-04-21T00:08:03.621Z,24.30
2019-04-21T00:12:18.221Z,24.30
2019-04-21T00:16:25.577Z,24.30
2019-04-21T00:20:44.876Z,24.40
2019-04-21T00:25:14.942Z,24.50
2019-04-21T00:29:42.527Z,24.60
2019-04-21T00:33:41.629Z,24.60
2019-04-21T00:38:22.794Z,24.70
2019-04-21T00:42:40.252Z,24.70
2019-04-21T00:47:00.598Z,24.90
2019-04-21T00:51:40.509Z,24.80
2019-04-21T00:55:57.328Z,25.00
2019-04-21T01:00:18.744Z,25.20
2019-04-21T01:04:44.862Z,25.20
2019-04-21T01:09:00.541Z,25.30
2019-04-21T01:13:23.518Z,25.30
2019-04-21T01:17:35.248Z,25.50
2019-04-21T01:21:37.504Z,25.70
2019-04-21T01:26:12.172Z,26.10
2019-04-21T01:30:34.327Z,26.20
2019-04-21T01:35:01.192Z,26.10
2019-04-21T01:39:20.168Z,26.30
2019-04-21T01:43:33.504Z,26.40
2019-04-21T01:47:59.294Z,26.20
2019-04-21T01:52:24.545Z,26.30
2019-04-21T01:56:49.739Z,26.30
2019-04-21T02:01:05.738Z,26.20
2019-04-21T02:05:37.538Z,26.50
2019-04-21T02:09:50.993Z,26.60
2019-04-21T02:14:09.950Z,26.70
2019-04-21T02:18:27.657Z,26.70
2019-04-21T02:23:06.049Z,26.80
2019-04-21T02:27:14.841Z,26.80
2019-04-21T02:36:15.380Z,26.90
2019-04-21T02:40:22.319Z,27.10
2019-04-21T02:44:43.294Z,27.10
2019-04-21T02:49:04.151Z,27.10
2019-04-21T02:53:27.048Z,27.10
2019-04-21T02:57:49.444Z,27.30
2019-04-21T03:07:11.326Z,27.60
2019-04-21T03:11:14.081Z,27.70
2019-04-21T03:15:47.395Z,27.70
2019-04-21T03:24:17.488Z,28.00
2019-04-21T03:28:39.697Z,28.00
2019-04-21T03:33:48.835Z,28.20
2019-04-21T03:37:23.154Z,28.20
2019-04-21T03:41:48.813Z,28.40
2019-04-21T03:46:02.158Z,28.40
2019-04-21T03:59:45.093Z,28.50
2019-04-21T04:04:28.418Z,28.40
2019-04-21T04:13:14.472Z,28.60
2019-04-21T04:17:32.951Z,28.90
2019-04-21T04:22:14.645Z,28.80
2019-04-21T04:30:38.250Z,29.10
2019-04-21T04:35:03.793Z,29.20
2019-04-21T04:48:19.432Z,29.50
2019-04-21T04:57:20.256Z,29.60
2019-04-21T05:01:29.938Z,30.00
2019-04-21T05:06:04.897Z,31.40
2019-04-21T05:10:22.697Z,32.50
2019-04-21T05:14:39.366Z,33.10
2019-04-21T05:19:04.167Z,33.30
2019-04-21T05:23:06.319Z,33.60
2019-04-21T05:27:48.261Z,33.80
2019-04-21T05:32:32.815Z,34.10
2019-04-21T05:37:07.236Z,34.10
2019-04-21T05:41:18.219Z,34.10
2019-04-21T05:46:12.423Z,33.80
2019-04-21T05:50:06.252Z,33.90
2019-04-21T05:54:39.067Z,33.70
2019-04-21T05:58:49.650Z,33.50
2019-04-21T06:03:15.142Z,33.40
2019-04-21T06:07:37.873Z,33.20
2019-04-21T06:11:58.003Z,33.00
2019-04-21T06:16:14.757Z,32.80
2019-04-21T06:20:33.444Z,31.80
2019-04-21T06:25:20.921Z,31.40
2019-04-21T06:29:18.494Z,31.50
2019-04-21T06:33:40.295Z,31.50
2019-04-21T06:37:56.528Z,31.00
2019-04-21T06:42:13.547Z,30.60
2019-04-21T06:51:04.918Z,29.00
2019-04-21T06:55:20.373Z,29.00
2019-04-21T06:59:34.154Z,29.00
2019-04-21T07:04:08.112Z,28.80
2019-04-21T07:12:37.069Z,28.20
2019-04-21T07:16:57.850Z,27.70
2019-04-21T07:21:15.826Z,27.40
2019-04-21T07:25:40.861Z,27.00
2019-04-21T07:29:58.582Z,26.60
2019-04-21T07:34:21.643Z,26.10
2019-04-21T07:38:36.571Z,25.60
2019-04-21T07:42:51.348Z,25.30
2019-04-21T07:47:23.419Z,24.80
2019-04-21T07:56:06.272Z,24.30
2019-04-21T08:00:45.033Z,24.30
2019-04-21T08:05:07.544Z,23.50
2019-04-21T08:09:22.933Z,23.30
2019-04-21T08:13:41.549Z,23.10
2019-04-21T08:18:00.703Z,23.00
2019-04-21T08:22:17.068Z,22.90
2019-04-21T08:31:01.321Z,22.20
2019-04-21T08:39:49.405Z,21.50
2019-04-21T08:43:57.958Z,21.10
2019-04-21T08:48:17.072Z,20.80
2019-04-21T08:52:49.294Z,20.80
2019-04-21T08:57:21.693Z,20.50
2019-04-21T09:02:12.475Z,20.30
2019-04-21T09:06:51.268Z,20.20
2019-04-21T09:10:49.810Z,20.00
2019-04-21T09:15:11.491Z,20.20
2019-04-21T09:19:40.887Z,20.00
2019-04-21T09:23:50.850Z,19.80
2019-04-21T09:28:04.025Z,19.70
2019-04-21T09:32:18.227Z,19.40
2019-04-21T09:36:40.267Z,19.20
2019-04-21T09:40:54.515Z,18.50
2019-04-21T09:45:13.935Z,18.70
2019-04-21T09:49:35.364Z,18.40
2019-04-21T09:54:01.191Z,18.20
2019-04-21T09:58:24.011Z,18.50
2019-04-21T10:02:42.604Z,18.70
2019-04-21T10:06:54.516Z,18.60
2019-04-21T10:11:14.163Z,18.10
2019-04-21T10:15:33.223Z,17.70
2019-04-21T10:19:52.828Z,17.00
2019-04-21T10:24:12.503Z,16.10
2019-04-21T10:28:32.927Z,16.00
2019-04-21T10:32:52.449Z,15.70
2019-04-21T10:37:11.413Z,15.30
2019-04-21T10:41:29.885Z,15.00
2019-04-21T10:45:48.764Z,14.90
2019-04-21T10:50:08.990Z,15.10
2019-04-21T10:54:47.818Z,14.90
2019-04-21T10:58:50.013Z,14.70
2019-04-21T11:03:35.366Z,14.30
2019-04-21T11:08:08.954Z,14.40
2019-04-21T11:12:15.980Z,14.40
2019-04-21T11:16:35.185Z,14.50
2019-04-21T11:20:53.655Z,14.40
2019-04-21T11:25:12.868Z,13.70
2019-04-21T11:29:32.970Z,13.80
2019-04-21T11:33:51.590Z,14.00
2019-04-21T11:38:19.028Z,14.10
2019-04-21T11:42:37.808Z,14.10
2019-04-21T11:46:56.655Z,14.00
2019-04-21T11:51:17.104Z,13.60
2019-04-21T11:55:39.768Z,14.00
2019-04-21T11:59:55.734Z,13.80
2019-04-21T12:04:15.962Z,13.60
2019-04-21T12:08:40.381Z,13.60
2019-04-21T12:12:55.186Z,13.50
2019-04-21T12:17:14.215Z,13.60
2019-04-21T12:21:47.908Z,13.70
2019-04-21T12:25:53.002Z,13.70
2019-04-21T12:30:13.908Z,13.70
2019-04-21T12:34:32.351Z,13.40
2019-04-21T12:38:55.789Z,13.40
2019-04-21T12:43:11.042Z,13.50
2019-04-21T12:47:30.202Z,13.70
2019-04-21T12:51:48.697Z,13.80
2019-04-21T12:56:07.576Z,13.80
2019-04-21T13:00:27.054Z,13.60
2019-04-21T13:04:46.122Z,13.70
2019-04-21T13:09:10.711Z,13.80
2019-04-21T13:13:28.144Z,13.70
2019-04-21T13:17:47.422Z,13.60
2019-04-21T13:22:06.236Z,13.50
2019-04-21T13:26:34.474Z,13.50
2019-04-21T13:30:44.576Z,13.50
2019-04-21T13:35:03.374Z,13.60
2019-04-21T13:40:14.724Z,13.40
2019-04-21T13:44:15.681Z,13.30
2019-04-21T13:48:34.952Z,13.60
2019-04-21T13:52:54.482Z,13.60
2019-04-21T13:57:14.328Z,13.60
2019-04-21T14:01:33.999Z,13.70
2019-04-21T14:05:54.025Z,13.60
2019-04-21T14:10:16.098Z,13.60
2019-04-21T14:14:36.601Z,13.40
2019-04-21T14:18:55.178Z,13.40
2019-04-21T14:23:23.121Z,13.50
2019-04-21T14:27:34.359Z,13.50
2019-04-21T14:31:52.700Z,13.60
2019-04-21T14:36:11.029Z,13.70
2019-04-21T14:40:33.246Z,13.70
2019-04-21T14:44:51.203Z,13.80
2019-04-21T14:49:17.256Z,14.40
2019-04-21T14:53:57.598Z,14.00
2019-04-21T14:58:17.100Z,14.20
2019-04-21T15:02:36.031Z,14.20
2019-04-21T15:06:55.095Z,14.20
2019-04-21T15:11:16.075Z,14.30
2019-04-21T15:15:34.499Z,14.30
2019-04-21T15:19:59.765Z,14.40
2019-04-21T15:24:16.127Z,14.50
2019-04-21T15:28:37.251Z,14.60
2019-04-21T15:32:54.786Z,14.60
2019-04-21T15:37:13.709Z,14.70
2019-04-21T15:41:32.425Z,14.80
2019-04-21T15:45:50.852Z,14.80
2019-04-21T15:50:14.272Z,14.90
2019-04-21T15:54:32.323Z,15.00
2019-04-21T15:59:08.452Z,15.00
2019-04-21T16:03:27.245Z,14.90
2019-04-21T16:07:45.529Z,15.00
2019-04-21T16:12:04.179Z,15.10
2019-04-21T16:16:25.480Z,15.10
2019-04-21T16:20:43.838Z,15.20
2019-04-21T16:25:03.347Z,15.20
2019-04-21T16:29:22.997Z,15.20
2019-04-21T16:33:43.233Z,15.30
2019-04-21T16:38:02.842Z,15.30
2019-04-21T16:42:22.642Z,15.40
2019-04-21T16:46:41.394Z,15.40
2019-04-21T16:51:01.634Z,15.50
2019-04-21T16:55:29.115Z,15.50
2019-04-21T16:59:52.654Z,15.50
2019-04-21T17:04:12.798Z,15.50
2019-04-21T17:08:31.809Z,15.50
2019-04-21T17:12:51.315Z,15.70
2019-04-21T17:17:32.420Z,15.70
2019-04-21T17:21:31.940Z,15.80
2019-04-21T17:25:50.917Z,15.80
2019-04-21T17:30:12.737Z,15.80
2019-04-21T17:34:33.703Z,15.80
2019-04-21T17:38:52.279Z,15.90
2019-04-21T17:43:14.365Z,15.90
2019-04-21T17:47:44.314Z,16.00
2019-04-21T17:52:36.698Z,16.40
2019-04-21T17:57:11.242Z,16.20
2019-04-21T18:01:35.338Z,16.20
2019-04-21T18:05:47.499Z,16.60
2019-04-21T18:10:10.013Z,16.60
2019-04-21T18:14:13.681Z,16.70
2019-04-21T18:18:32.944Z,16.60
2019-04-21T18:23:19.294Z,16.70
2019-04-21T18:27:29.837Z,16.80
2019-04-21T18:31:51.936Z,16.90
2019-04-21T18:36:34.087Z,16.90
2019-04-21T18:40:51.320Z,17.00
2019-04-21T18:45:48.007Z,17.10
2019-04-21T18:49:45.956Z,17.10
2019-04-21T18:54:29.919Z,17.30
2019-04-21T18:58:32.570Z,17.40
2019-04-21T19:02:55.946Z,17.30
2019-04-21T19:07:25.464Z,17.40
2019-04-21T19:11:51.847Z,17.50
2019-04-21T19:16:33.658Z,17.50
2019-04-21T19:20:30.073Z,17.50
2019-04-21T19:24:57.204Z,17.70
2019-04-21T19:29:21.078Z,17.70
2019-04-21T19:33:29.804Z,17.70
2019-04-21T19:37:43.191Z,17.80
2019-04-21T19:42:06.592Z,17.80
2019-04-21T19:46:31.521Z,17.90
2019-04-21T19:50:58.944Z,17.90
2019-04-21T19:54:56.733Z,18.00
2019-04-21T19:59:19.594Z,18.00
2019-04-21T20:03:38.691Z,18.10
2019-04-21T20:08:11.349Z,18.10
2019-04-21T20:12:39.920Z,18.20
2019-04-21T20:16:53.188Z,18.30
2019-04-21T20:20:58.386Z,18.30
2019-04-21T20:25:21.266Z,18.40
2019-04-21T20:29:57.528Z,18.40
2019-04-21T20:34:21.231Z,18.20
2019-04-21T20:38:34.018Z,18.50
2019-04-21T20:42:51.061Z,18.70
2019-04-21T20:47:11.463Z,18.70
2019-04-21T20:51:37.901Z,18.80
2019-04-21T20:55:53.247Z,18.90
2019-04-21T21:00:21.780Z,19.00
2019-04-21T21:04:30.076Z,19.10
2019-04-21T21:09:00.212Z,19.20
2019-04-21T21:13:26.562Z,19.30
2019-04-21T21:17:50.362Z,19.30
2019-04-21T21:21:56.290Z,19.40
2019-04-21T21:26:28.268Z,19.50
2019-04-21T21:30:38.574Z,19.60
2019-04-21T21:35:06.273Z,19.70
2019-04-21T21:39:21.495Z,19.90
2019-04-21T21:43:28.941Z,19.90
2019-04-21T21:48:06.990Z,19.90
2019-04-21T21:52:16.866Z,20.00
2019-04-21T21:56:27.284Z,20.10
2019-04-21T22:00:56.687Z,20.20
2019-04-21T22:05:16.575Z,20.30
2019-04-21T22:09:32.283Z,20.40
2019-04-21T22:13:58.836Z,20.40
2019-04-21T22:18:28.689Z,20.50
2019-04-21T22:22:43.854Z,21.10
2019-04-21T22:26:52.527Z,20.50
2019-04-21T22:31:15.444Z,20.70
2019-04-21T22:35:38.930Z,20.80
2019-04-21T22:40:04.480Z,20.80
2019-04-21T22:44:18.835Z,21.00
2019-04-21T22:48:37.202Z,21.00
2019-04-21T22:52:59.472Z,21.00
2019-04-21T22:57:19.840Z,21.20
2019-04-21T23:01:42.402Z,21.20
2019-04-21T23:06:00.532Z,21.30
2019-04-21T23:10:17.527Z,21.40
2019-04-21T23:14:46.826Z,21.50
2019-04-21T23:19:17.271Z,21.60
2019-04-21T23:23:39.758Z,21.80
2019-04-21T23:27:59.124Z,21.70
2019-04-21T23:32:14.938Z,21.70
2019-04-21T23:36:22.625Z,22.30
2019-04-21T23:40:39.755Z,21.60
2019-04-21T23:44:59.661Z,21.80
2019-04-21T23:49:31.959Z,21.80
2019-04-21T23:53:37.504Z,21.90
2019-04-21T23:58:06.059Z,22.00
